SWR93 SBGR-LSZH
Flight info
| Callsign | SWR93 |
|---|---|
| Flight time | N/A |
| Altitude | 33000 |
| Route | VUMEV UZ14 NITLU UZ16 EVPAD DCT ENRUV UL206 KODOS/N0495F350 DCT 05N024W 10N021W DCT TURUP UA302 ANITI UR975 ARDAR UA854 ULPAK/N0489F370 UA854 BRENA UM986 TRB UG26 CHE/N0478F380 UA29 SADAF DCT CDP Z238 CHELY N853 LUMAS DCT SOSUR DCT SECON DCT ODIXU DCT MAXIR DCT LUSOL DCT BODRU/N0481F320 DCT OKTET DCT IRMAR DCT KINES DCT VANAS DCT MOBLO DCT LAMUR DCT GUDAX Z57 DOPIL |
| Aircraft | B77W/H-SDE1E2E3FGHIJ2J3J4J5M1RWXY/LB1D1 |
Departure
| Time | N/A |
|---|---|
| Airport | São Paulo/Guarulhos–Governor André Franco Montoro International Airport (SBGR) |
Arrival
| Time | 2026-02-18 11:55 |
|---|---|
| Airport | Zürich Airport (LSZH) |
| Time | Latitude | Longitude | Altitude | Speed | Heading |
|---|---|---|---|---|---|
| 2026-02-18 10:00 | 34.86287 | 1.38402 | 37264 ft | 482 kts | 7° |
| 2026-02-18 10:00 | 34.92841 | 1.40162 | 37267 ft | 482 kts | 7° |
| 2026-02-18 10:01 | 34.99391 | 1.41924 | 37288 ft | 482 kts | 6° |
| 2026-02-18 10:01 | 35.09217 | 1.44572 | 37252 ft | 482 kts | 6° |
| 2026-02-18 10:02 | 35.15766 | 1.46341 | 37257 ft | 482 kts | 6° |
| 2026-02-18 10:02 | 35.22308 | 1.48112 | 37261 ft | 481 kts | 6° |
| 2026-02-18 10:03 | 35.28851 | 1.49884 | 37269 ft | 481 kts | 6° |
| 2026-02-18 10:03 | 35.35365 | 1.51848 | 37263 ft | 485 kts | 12° |
| 2026-02-18 10:04 | 35.41659 | 1.54988 | 37270 ft | 490 kts | 18° |
| 2026-02-18 10:04 | 35.47887 | 1.58392 | 37256 ft | 490 kts | 18° |
| 2026-02-18 10:05 | 35.57236 | 1.63441 | 37243 ft | 489 kts | 17° |
| 2026-02-18 10:06 | 35.63445 | 1.66757 | 37213 ft | 489 kts | 17° |
| 2026-02-18 10:06 | 35.69684 | 1.70091 | 37231 ft | 489 kts | 17° |
| 2026-02-18 10:07 | 35.75928 | 1.73436 | 37229 ft | 489 kts | 17° |
| 2026-02-18 10:07 | 35.82166 | 1.76787 | 37227 ft | 489 kts | 17° |
| 2026-02-18 10:08 | 35.88406 | 1.80142 | 37218 ft | 489 kts | 17° |
| 2026-02-18 10:08 | 35.94646 | 1.83503 | 37212 ft | 489 kts | 17° |
| 2026-02-18 10:09 | 36.00893 | 1.86876 | 37223 ft | 490 kts | 17° |
| 2026-02-18 10:09 | 36.10222 | 1.91923 | 37220 ft | 490 kts | 17° |
| 2026-02-18 10:10 | 36.16471 | 1.95311 | 37210 ft | 490 kts | 17° |
| 2026-02-18 10:10 | 36.22718 | 1.98718 | 37208 ft | 491 kts | 18° |
| 2026-02-18 10:11 | 36.27880 | 2.01549 | 37221 ft | 490 kts | 17° |
| 2026-02-18 10:11 | 36.34074 | 2.04950 | 37203 ft | 490 kts | 17° |
| 2026-02-18 10:12 | 36.40352 | 2.08404 | 37195 ft | 490 kts | 17° |
| 2026-02-18 10:12 | 36.46587 | 2.11834 | 37198 ft | 490 kts | 17° |
| 2026-02-18 10:13 | 36.55945 | 2.16985 | 37197 ft | 490 kts | 15° |
| 2026-02-18 10:14 | 36.62385 | 2.19393 | 37188 ft | 479 kts | 5° |
| 2026-02-18 10:14 | 36.68930 | 2.20415 | 37182 ft | 472 kts | 358° |
| 2026-02-18 10:15 | 36.75481 | 2.21078 | 37196 ft | 472 kts | 357° |
| 2026-02-18 10:15 | 36.82035 | 2.21758 | 37179 ft | 473 kts | 358° |
| 2026-02-18 10:16 | 36.88557 | 2.22474 | 37171 ft | 473 kts | 358° |
| 2026-02-18 10:16 | 36.95122 | 2.23212 | 37168 ft | 474 kts | 358° |
| 2026-02-18 10:17 | 37.01682 | 2.23952 | 37174 ft | 474 kts | 358° |
| 2026-02-18 10:17 | 37.11571 | 2.25066 | 37170 ft | 474 kts | 358° |
| 2026-02-18 10:18 | 37.18138 | 2.25808 | 37166 ft | 474 kts | 358° |
| 2026-02-18 10:18 | 37.24664 | 2.26545 | 37173 ft | 474 kts | 358° |
| 2026-02-18 10:19 | 37.31238 | 2.27290 | 37164 ft | 474 kts | 358° |
| 2026-02-18 10:19 | 37.37811 | 2.28035 | 37162 ft | 474 kts | 358° |
| 2026-02-18 10:20 | 37.44377 | 2.28782 | 37159 ft | 474 kts | 358° |
| 2026-02-18 10:20 | 37.50955 | 2.29531 | 37172 ft | 473 kts | 358° |
| 2026-02-18 10:21 | 37.60759 | 2.30650 | 37157 ft | 473 kts | 358° |
| 2026-02-18 10:22 | 37.67348 | 2.31403 | 37157 ft | 472 kts | 358° |
| 2026-02-18 10:22 | 37.73878 | 2.32151 | 37156 ft | 472 kts | 357° |
| 2026-02-18 10:23 | 37.80414 | 2.33465 | 37154 ft | 482 kts | 7° |
| 2026-02-18 10:23 | 37.86760 | 2.36328 | 37153 ft | 492 kts | 16° |
| 2026-02-18 10:24 | 37.93002 | 2.39924 | 37176 ft | 494 kts | 17° |
| 2026-02-18 10:24 | 37.99252 | 2.43576 | 37149 ft | 494 kts | 17° |
| 2026-02-18 10:25 | 38.05508 | 2.47183 | 37146 ft | 494 kts | 17° |
| 2026-02-18 10:25 | 38.14916 | 2.52563 | 37142 ft | 494 kts | 17° |
| 2026-02-18 10:26 | 38.21192 | 2.56156 | 37132 ft | 495 kts | 17° |
| 2026-02-18 10:26 | 38.27475 | 2.59762 | 37123 ft | 495 kts | 17° |
| 2026-02-18 10:27 | 38.33752 | 2.63374 | 37146 ft | 495 kts | 17° |
| 2026-02-18 10:27 | 38.40020 | 2.66987 | 37143 ft | 495 kts | 17° |
| 2026-02-18 10:28 | 38.46288 | 2.70608 | 37117 ft | 494 kts | 17° |
| 2026-02-18 10:28 | 38.52549 | 2.74230 | 37135 ft | 494 kts | 17° |
| 2026-02-18 10:29 | 38.61931 | 2.79672 | 37144 ft | 493 kts | 17° |
| 2026-02-18 10:30 | 38.68179 | 2.83305 | 37132 ft | 493 kts | 17° |
| 2026-02-18 10:30 | 38.74420 | 2.86941 | 37124 ft | 493 kts | 17° |
| 2026-02-18 10:31 | 38.80657 | 2.90581 | 37132 ft | 492 kts | 17° |
| 2026-02-18 10:31 | 38.86890 | 2.94226 | 37161 ft | 492 kts | 17° |
| 2026-02-18 10:32 | 38.93125 | 2.97879 | 37130 ft | 493 kts | 17° |
| 2026-02-18 10:32 | 38.99300 | 3.01504 | 37118 ft | 492 kts | 17° |
| 2026-02-18 10:33 | 39.05522 | 3.05164 | 37118 ft | 492 kts | 17° |
| 2026-02-18 10:33 | 39.14816 | 3.10644 | 37126 ft | 492 kts | 17° |
| 2026-02-18 10:34 | 39.21039 | 3.14323 | 37112 ft | 492 kts | 17° |
| 2026-02-18 10:34 | 39.27256 | 3.18005 | 37113 ft | 491 kts | 17° |
| 2026-02-18 10:35 | 39.33467 | 3.21690 | 37114 ft | 492 kts | 16° |
| 2026-02-18 10:35 | 39.39679 | 3.25384 | 37116 ft | 491 kts | 16° |
| 2026-02-18 10:36 | 39.45893 | 3.29085 | 37101 ft | 492 kts | 17° |
| 2026-02-18 10:36 | 39.46943 | 3.29712 | 37105 ft | 492 kts | 17° |
| 2026-02-18 10:37 | 39.61432 | 3.38376 | 37106 ft | 492 kts | 17° |
| 2026-02-18 10:38 | 39.67650 | 3.42106 | 37100 ft | 493 kts | 17° |
| 2026-02-18 10:38 | 39.73766 | 3.46269 | 37101 ft | 499 kts | 22° |
| 2026-02-18 10:39 | 39.79748 | 3.50867 | 37094 ft | 501 kts | 22° |
| 2026-02-18 10:39 | 39.85734 | 3.55506 | 37100 ft | 500 kts | 22° |
| 2026-02-18 10:40 | 39.91690 | 3.60087 | 37096 ft | 500 kts | 22° |
| 2026-02-18 10:40 | 39.97683 | 3.64677 | 37121 ft | 500 kts | 22° |
| 2026-02-18 10:41 | 40.03675 | 3.69271 | 37095 ft | 500 kts | 22° |
| 2026-02-18 10:41 | 40.12661 | 3.76182 | 37092 ft | 500 kts | 22° |
| 2026-02-18 10:42 | 40.18648 | 3.80801 | 37104 ft | 499 kts | 22° |
| 2026-02-18 10:42 | 40.24634 | 3.85428 | 37095 ft | 500 kts | 22° |
| 2026-02-18 10:43 | 40.30616 | 3.90063 | 37092 ft | 499 kts | 22° |
| 2026-02-18 10:43 | 40.36584 | 3.94696 | 37084 ft | 498 kts | 22° |
| 2026-02-18 10:44 | 40.42545 | 3.99333 | 37099 ft | 498 kts | 22° |
| 2026-02-18 10:44 | 40.48453 | 4.03937 | 37089 ft | 498 kts | 22° |
| 2026-02-18 10:45 | 40.57397 | 4.10926 | 37086 ft | 499 kts | 22° |
| 2026-02-18 10:46 | 40.63361 | 4.15600 | 37086 ft | 499 kts | 22° |
| 2026-02-18 10:46 | 40.69323 | 4.20282 | 37095 ft | 499 kts | 22° |
| 2026-02-18 10:47 | 40.75248 | 4.24944 | 37085 ft | 499 kts | 22° |
| 2026-02-18 10:47 | 40.81212 | 4.29647 | 37084 ft | 499 kts | 22° |
| 2026-02-18 10:48 | 40.87170 | 4.34356 | 37091 ft | 500 kts | 22° |
| 2026-02-18 10:48 | 40.93131 | 4.39077 | 37082 ft | 499 kts | 22° |
| 2026-02-18 10:49 | 40.99086 | 4.43804 | 37079 ft | 499 kts | 22° |
| 2026-02-18 10:49 | 41.08213 | 4.50074 | 37082 ft | 485 kts | 11° |
| 2026-02-18 10:50 | 41.14623 | 4.52384 | 37083 ft | 472 kts | 1° |
| 2026-02-18 10:50 | 41.21080 | 4.53909 | 37081 ft | 471 kts | 0° |
| 2026-02-18 10:51 | 41.27544 | 4.55418 | 37095 ft | 472 kts | 1° |
| 2026-02-18 10:51 | 41.34023 | 4.56985 | 37073 ft | 474 kts | 1° |
| 2026-02-18 10:52 | 41.40510 | 4.58582 | 37077 ft | 474 kts | 1° |
| 2026-02-18 10:52 | 41.47001 | 4.60186 | 37074 ft | 474 kts | 1° |
| 2026-02-18 10:53 | 41.56740 | 4.62592 | 37078 ft | 475 kts | 1° |
| 2026-02-18 10:54 | 41.63238 | 4.64201 | 37072 ft | 475 kts | 1° |
| 2026-02-18 10:54 | 41.69693 | 4.65803 | 37103 ft | 475 kts | 1° |
| 2026-02-18 10:55 | 41.76223 | 4.67732 | 37074 ft | 482 kts | 7° |
| 2026-02-18 10:55 | 41.82626 | 4.70275 | 37070 ft | 484 kts | 8° |
| 2026-02-18 10:56 | 41.89072 | 4.72896 | 37095 ft | 484 kts | 8° |
| 2026-02-18 10:56 | 41.95524 | 4.75481 | 37068 ft | 484 kts | 7° |
| 2026-02-18 10:57 | 42.01981 | 4.78046 | 37061 ft | 484 kts | 7° |
| 2026-02-18 10:57 | 42.11667 | 4.81896 | 37093 ft | 484 kts | 8° |
| 2026-02-18 10:58 | 42.18131 | 4.84474 | 37066 ft | 484 kts | 8° |
| 2026-02-18 10:58 | 42.24587 | 4.87057 | 37054 ft | 483 kts | 8° |
| 2026-02-18 10:59 | 42.31030 | 4.89640 | 37084 ft | 483 kts | 8° |
| 2026-02-18 10:59 | 42.36380 | 4.91787 | 37052 ft | 482 kts | 8° |
| 2026-02-18 11:00 | 42.42815 | 4.94377 | 37054 ft | 482 kts | 8° |
| 2026-02-18 11:00 | 42.49231 | 4.96964 | 37057 ft | 481 kts | 8° |
| 2026-02-18 11:01 | 42.58807 | 5.00824 | 37054 ft | 480 kts | 8° |
| 2026-02-18 11:02 | 42.65174 | 5.03344 | 37048 ft | 480 kts | 8° |
| 2026-02-18 11:02 | 42.71581 | 5.05884 | 37048 ft | 479 kts | 8° |
| 2026-02-18 11:03 | 42.77978 | 5.08441 | 37045 ft | 479 kts | 9° |
| 2026-02-18 11:03 | 42.81081 | 5.10217 | 37040 ft | 492 kts | 21° |
| 2026-02-18 11:03 | 42.83954 | 5.12851 | 37048 ft | 504 kts | 32° |
| 2026-02-18 11:03 | 42.86479 | 5.16224 | 37043 ft | 515 kts | 44° |
| 2026-02-18 11:04 | 42.88692 | 5.20082 | 37054 ft | 518 kts | 47° |
| 2026-02-18 11:04 | 42.92983 | 5.27996 | 37048 ft | 520 kts | 47° |
| 2026-02-18 11:05 | 42.97333 | 5.35877 | 37051 ft | 519 kts | 46° |
| 2026-02-18 11:05 | 43.03917 | 5.47545 | 37037 ft | 516 kts | 46° |
| 2026-02-18 11:06 | 43.08280 | 5.55304 | 37040 ft | 514 kts | 46° |
| 2026-02-18 11:06 | 43.12794 | 5.62808 | 37048 ft | 508 kts | 42° |
| 2026-02-18 11:07 | 43.17517 | 5.69987 | 37033 ft | 507 kts | 41° |
| 2026-02-18 11:07 | 43.22234 | 5.77168 | 37040 ft | 507 kts | 41° |
| 2026-02-18 11:08 | 43.26916 | 5.84393 | 37044 ft | 507 kts | 42° |
| 2026-02-18 11:08 | 43.31595 | 5.91652 | 37022 ft | 508 kts | 42° |
| 2026-02-18 11:09 | 43.38918 | 6.01748 | 37010 ft | 487 kts | 22° |
| 2026-02-18 11:09 | 43.41936 | 6.03719 | 37031 ft | 475 kts | 11° |
| 2026-02-18 11:10 | 43.45098 | 6.04837 | 37007 ft | 465 kts | 359° |
| 2026-02-18 11:10 | 43.51522 | 6.05382 | 37014 ft | 465 kts | 355° |
| 2026-02-18 11:11 | 43.58006 | 6.05915 | 37013 ft | 467 kts | 356° |
| 2026-02-18 11:11 | 43.64395 | 6.06543 | 37002 ft | 459 kts | 356° |
| 2026-02-18 11:12 | 43.70767 | 6.07172 | 37021 ft | 460 kts | 356° |
| 2026-02-18 11:12 | 43.77156 | 6.08586 | 37020 ft | 473 kts | 8° |
| 2026-02-18 11:13 | 43.83382 | 6.11866 | 37013 ft | 485 kts | 18° |
| 2026-02-18 11:13 | 43.92479 | 6.18214 | 37016 ft | 488 kts | 19° |
| 2026-02-18 11:14 | 43.98548 | 6.22431 | 37020 ft | 488 kts | 19° |
| 2026-02-18 11:14 | 44.04609 | 6.26588 | 36999 ft | 488 kts | 19° |
| 2026-02-18 11:15 | 44.10707 | 6.30772 | 36997 ft | 489 kts | 19° |
| 2026-02-18 11:15 | 44.16793 | 6.34963 | 37017 ft | 488 kts | 19° |
| 2026-02-18 11:16 | 44.22869 | 6.39155 | 36995 ft | 486 kts | 19° |
| 2026-02-18 11:16 | 44.28916 | 6.43354 | 37034 ft | 485 kts | 19° |
| 2026-02-18 11:17 | 44.37977 | 6.49655 | 37010 ft | 484 kts | 19° |
| 2026-02-18 11:18 | 44.44003 | 6.53854 | 37063 ft | 483 kts | 19° |
| 2026-02-18 11:18 | 44.50002 | 6.58054 | 37009 ft | 481 kts | 19° |
| 2026-02-18 11:19 | 44.55995 | 6.62212 | 36997 ft | 480 kts | 19° |
| 2026-02-18 11:19 | 44.61978 | 6.66379 | 37004 ft | 480 kts | 19° |
| 2026-02-18 11:20 | 44.67958 | 6.70553 | 36979 ft | 481 kts | 19° |
| 2026-02-18 11:20 | 44.73905 | 6.74707 | 36958 ft | 478 kts | 19° |
| 2026-02-18 11:21 | 44.80000 | 6.78020 | 37047 ft | 462 kts | 4° |
| 2026-02-18 11:21 | 44.86302 | 6.78764 | 36983 ft | 449 kts | 350° |
| 2026-02-18 11:21 | 44.89418 | 6.78537 | 36974 ft | 449 kts | 349° |
| 2026-02-18 11:22 | 44.95637 | 6.78028 | 36968 ft | 447 kts | 349° |
| 2026-02-18 11:22 | 45.01826 | 6.77578 | 36990 ft | 445 kts | 350° |
| 2026-02-18 11:23 | 45.08027 | 6.77159 | 36969 ft | 447 kts | 350° |
| 2026-02-18 11:23 | 45.14255 | 6.76749 | 36966 ft | 449 kts | 350° |
| 2026-02-18 11:24 | 45.20494 | 6.76337 | 37012 ft | 450 kts | 350° |
| 2026-02-18 11:24 | 45.26759 | 6.75922 | 36985 ft | 450 kts | 349° |
| 2026-02-18 11:25 | 45.36114 | 6.75306 | 36974 ft | 448 kts | 350° |
| 2026-02-18 11:26 | 45.42358 | 6.74915 | 36975 ft | 450 kts | 350° |
| 2026-02-18 11:26 | 45.48613 | 6.74508 | 36943 ft | 448 kts | 350° |
| 2026-02-18 11:27 | 45.54824 | 6.74086 | 36936 ft | 446 kts | 350° |
| 2026-02-18 11:27 | 45.61013 | 6.73667 | 36959 ft | 443 kts | 349° |
| 2026-02-18 11:28 | 45.67150 | 6.73248 | 36972 ft | 440 kts | 349° |
| 2026-02-18 11:28 | 45.73270 | 6.72827 | 36969 ft | 441 kts | 350° |
| 2026-02-18 11:29 | 45.79461 | 6.72923 | 36998 ft | 456 kts | 360° |
| 2026-02-18 11:29 | 45.85715 | 6.75196 | 36956 ft | 474 kts | 13° |
| 2026-02-18 11:29 | 45.88742 | 6.77082 | 36938 ft | 476 kts | 16° |
| 2026-02-18 11:30 | 45.94733 | 6.81111 | 36952 ft | 475 kts | 16° |
| 2026-02-18 11:30 | 46.00676 | 6.85106 | 36974 ft | 470 kts | 15° |
| 2026-02-18 11:31 | 46.06603 | 6.89025 | 36949 ft | 467 kts | 15° |
| 2026-02-18 11:31 | 46.12493 | 6.92892 | 36961 ft | 464 kts | 15° |
| 2026-02-18 11:32 | 46.18346 | 6.96744 | 36996 ft | 463 kts | 15° |
| 2026-02-18 11:32 | 46.24158 | 7.00576 | 36993 ft | 464 kts | 14° |
| 2026-02-18 11:33 | 46.32947 | 7.06391 | 37002 ft | 466 kts | 15° |
| 2026-02-18 11:34 | 46.38849 | 7.10315 | 37005 ft | 467 kts | 15° |
| 2026-02-18 11:34 | 46.44716 | 7.14225 | 36713 ft | 458 kts | 14° |
| 2026-02-18 11:34 | 46.47589 | 7.16146 | 36208 ft | 453 kts | 14° |
| 2026-02-18 11:35 | 46.50464 | 7.18060 | 35341 ft | 456 kts | 15° |
| 2026-02-18 11:35 | 46.53365 | 7.19991 | 34457 ft | 461 kts | 14° |
| 2026-02-18 11:35 | 46.56234 | 7.22054 | 33438 ft | 458 kts | 19° |
| 2026-02-18 11:35 | 46.58970 | 7.24499 | 31591 ft | 466 kts | 25° |
| 2026-02-18 11:36 | 46.61576 | 7.27388 | 29623 ft | 477 kts | 32° |
| 2026-02-18 11:36 | 46.64028 | 7.30538 | 28937 ft | 453 kts | 33° |
| 2026-02-18 11:36 | 46.66300 | 7.33530 | 28240 ft | 429 kts | 33° |
| 2026-02-18 11:36 | 46.68479 | 7.36341 | 27738 ft | 414 kts | 32° |
| 2026-02-18 11:37 | 46.70678 | 7.39105 | 27190 ft | 424 kts | 32° |
| 2026-02-18 11:37 | 46.75382 | 7.44996 | 26049 ft | 465 kts | 33° |
| 2026-02-18 11:37 | 46.77800 | 7.48153 | 25397 ft | 468 kts | 37° |
| 2026-02-18 11:38 | 46.80038 | 7.51621 | 24767 ft | 470 kts | 44° |
| 2026-02-18 11:38 | 46.82069 | 7.55334 | 24180 ft | 466 kts | 45° |
| 2026-02-18 11:38 | 46.84056 | 7.59053 | 23581 ft | 463 kts | 46° |
| 2026-02-18 11:38 | 46.86028 | 7.62751 | 22885 ft | 460 kts | 46° |
| 2026-02-18 11:39 | 46.87985 | 7.66405 | 22261 ft | 455 kts | 46° |
| 2026-02-18 11:39 | 46.89930 | 7.70021 | 21670 ft | 450 kts | 46° |
| 2026-02-18 11:39 | 46.91860 | 7.73594 | 21137 ft | 444 kts | 45° |
| 2026-02-18 11:39 | 46.93766 | 7.77121 | 20538 ft | 441 kts | 45° |
| 2026-02-18 11:40 | 46.95637 | 7.80579 | 19964 ft | 437 kts | 45° |
| 2026-02-18 11:40 | 46.97513 | 7.84051 | 19413 ft | 434 kts | 45° |
| 2026-02-18 11:40 | 46.99375 | 7.87507 | 18857 ft | 431 kts | 45° |
| 2026-02-18 11:40 | 47.01224 | 7.90938 | 18301 ft | 428 kts | 46° |
| 2026-02-18 11:41 | 47.03082 | 7.94399 | 17649 ft | 425 kts | 46° |
| 2026-02-18 11:41 | 47.06652 | 8.01039 | 16512 ft | 418 kts | 46° |
| 2026-02-18 11:41 | 47.08552 | 8.04202 | 15929 ft | 409 kts | 39° |
| 2026-02-18 11:42 | 47.10641 | 8.07021 | 15407 ft | 404 kts | 36° |
| 2026-02-18 11:42 | 47.12726 | 8.09772 | 14845 ft | 402 kts | 37° |
| 2026-02-18 11:42 | 47.14743 | 8.12519 | 14301 ft | 400 kts | 38° |
| 2026-02-18 11:42 | 47.16781 | 8.15365 | 13727 ft | 399 kts | 39° |
| 2026-02-18 11:43 | 47.18742 | 8.18135 | 13081 ft | 389 kts | 39° |
| 2026-02-18 11:43 | 47.20775 | 8.20587 | 12541 ft | 370 kts | 24° |
| 2026-02-18 11:43 | 47.23138 | 8.21807 | 12057 ft | 355 kts | 2° |
| 2026-02-18 11:43 | 47.25575 | 8.21858 | 11530 ft | 345 kts | 348° |
| 2026-02-18 11:44 | 47.27885 | 8.21110 | 10991 ft | 335 kts | 334° |
| 2026-02-18 11:44 | 47.29952 | 8.19656 | 10789 ft | 322 kts | 328° |
| 2026-02-18 11:44 | 47.31911 | 8.18155 | 10632 ft | 312 kts | 327° |
| 2026-02-18 11:44 | 47.33809 | 8.16689 | 10476 ft | 303 kts | 327° |
| 2026-02-18 11:45 | 47.35641 | 8.15286 | 10349 ft | 293 kts | 327° |
| 2026-02-18 11:45 | 47.39098 | 8.12676 | 10114 ft | 259 kts | 327° |
| 2026-02-18 11:45 | 47.40652 | 8.11510 | 10006 ft | 243 kts | 327° |
| 2026-02-18 11:46 | 47.42188 | 8.10349 | 9925 ft | 257 kts | 327° |
| 2026-02-18 11:46 | 47.43783 | 8.09143 | 9560 ft | 260 kts | 327° |
| 2026-02-18 11:46 | 47.45359 | 8.07968 | 9245 ft | 246 kts | 327° |
| 2026-02-18 11:46 | 47.46873 | 8.06838 | 8858 ft | 237 kts | 327° |
| 2026-02-18 11:47 | 47.48339 | 8.05749 | 8383 ft | 236 kts | 330° |
| 2026-02-18 11:47 | 47.49973 | 8.05325 | 7882 ft | 253 kts | 6° |
| 2026-02-18 11:47 | 47.51535 | 8.06427 | 7950 ft | 257 kts | 40° |
| 2026-02-18 11:47 | 47.52670 | 8.08532 | 7938 ft | 268 kts | 54° |
| 2026-02-18 11:48 | 47.53750 | 8.10858 | 7567 ft | 276 kts | 55° |
| 2026-02-18 11:48 | 47.54830 | 8.13218 | 7229 ft | 277 kts | 55° |
| 2026-02-18 11:48 | 47.55550 | 8.14783 | 7024 ft | 277 kts | 55° |
| 2026-02-18 11:48 | 47.56626 | 8.17112 | 6823 ft | 273 kts | 55° |
| 2026-02-18 11:49 | 47.57685 | 8.19393 | 6688 ft | 264 kts | 55° |
| 2026-02-18 11:49 | 47.59989 | 8.24564 | 6131 ft | 256 kts | 64° |
| 2026-02-18 11:49 | 47.60724 | 8.26957 | 5804 ft | 255 kts | 68° |
| 2026-02-18 11:50 | 47.61198 | 8.28580 | 5599 ft | 254 kts | 68° |
| 2026-02-18 11:50 | 47.61874 | 8.30924 | 5277 ft | 240 kts | 73° |
| 2026-02-18 11:50 | 47.62004 | 8.33235 | 5008 ft | 220 kts | 108° |
| 2026-02-18 11:50 | 47.61432 | 8.35307 | 4790 ft | 214 kts | 127° |
| 2026-02-18 11:51 | 47.60474 | 8.36922 | 4522 ft | 207 kts | 140° |
| 2026-02-18 11:51 | 47.59426 | 8.38348 | 4298 ft | 199 kts | 140° |
| 2026-02-18 11:51 | 47.58429 | 8.39694 | 4118 ft | 192 kts | 140° |
| 2026-02-18 11:51 | 47.57459 | 8.40995 | 4121 ft | 187 kts | 140° |
| 2026-02-18 11:52 | 47.56498 | 8.42292 | 4071 ft | 187 kts | 140° |
| 2026-02-18 11:52 | 47.55516 | 8.43625 | 3613 ft | 197 kts | 139° |
| 2026-02-18 11:52 | 47.54502 | 8.45003 | 3183 ft | 197 kts | 139° |
| 2026-02-18 11:52 | 47.53539 | 8.46321 | 2999 ft | 183 kts | 138° |
| 2026-02-18 11:53 | 47.52676 | 8.47495 | 2813 ft | 173 kts | 139° |
| 2026-02-18 11:53 | 47.51091 | 8.49647 | 2167 ft | 160 kts | 134° |
| 2026-02-18 11:53 | 47.50353 | 8.50702 | 2005 ft | 143 kts | 137° |
| 2026-02-18 11:54 | 47.49614 | 8.51702 | 1859 ft | 144 kts | 136° |
| 2026-02-18 11:54 | 47.48869 | 8.52709 | 1653 ft | 144 kts | 137° |
| 2026-02-18 11:54 | 47.48127 | 8.53721 | 1446 ft | 146 kts | 137° |
| 2026-02-18 11:54 | 47.47410 | 8.54699 | 1404 ft | 128 kts | 137° |
| 2026-02-18 11:55 | 47.46999 | 8.55259 | 1402 ft | 96 kts | 137° |
| 2026-02-18 11:55 | 47.46671 | 8.55704 | 1409 ft | 64 kts | 137° |
| 2026-02-18 11:55 | 47.46432 | 8.55928 | 1408 ft | 19 kts | 160° |
| 2026-02-18 11:55 | 47.46406 | 8.55943 | 1408 ft | 3 kts | 159° |
| 2026-02-18 11:56 | 47.46385 | 8.55952 | 1411 ft | 6 kts | 165° |
| 2026-02-18 11:56 | 47.46333 | 8.55971 | 1410 ft | 8 kts | 166° |
| 2026-02-18 11:56 | 47.46308 | 8.55979 | 1414 ft | 0 kts | 168° |
| 2026-02-18 11:58 | 47.46285 | 8.55982 | 1414 ft | 10 kts | 183° |
| 2026-02-18 11:58 | 47.46233 | 8.55829 | 1407 ft | 22 kts | 276° |
| 2026-02-18 11:58 | 47.46243 | 8.55676 | 1405 ft | 15 kts | 275° |
| 2026-02-18 11:59 | 47.46250 | 8.55572 | 1410 ft | 0 kts | 276° |
| 2026-02-18 11:59 | 47.46251 | 8.55571 | 1410 ft | 0 kts | 276° |
| 2026-02-18 11:59 | 47.46252 | 8.55542 | 1411 ft | 7 kts | 272° |
| 2026-02-18 12:00 | 47.46230 | 8.55509 | 1410 ft | 5 kts | 204° |
| 2026-02-18 12:00 | 47.46204 | 8.55499 | 1409 ft | 3 kts | 191° |
| 2026-02-18 12:00 | 47.46195 | 8.55496 | 1409 ft | 1 kts | 188° |
| 2026-02-18 12:00 | 47.46188 | 8.55495 | 1409 ft | 1 kts | 188° |
| 2026-02-18 12:01 | 47.46184 | 8.55494 | 1409 ft | 0 kts | 188° |